sensor_id;sensor_type;location;lat;lon;timestamp;pressure;altitude;pressure_sealevel;temperature;humidity
8292;BME280;4184;42.724;23.308;2022-08-19T00:01:42;95127.47;;;24.64;46.32
8292;BME280;4184;42.724;23.308;2022-08-19T00:04:12;95130.34;;;24.62;46.59
8292;BME280;4184;42.724;23.308;2022-08-19T00:06:41;95130.78;;;24.59;46.49
8292;BME280;4184;42.724;23.308;2022-08-19T00:09:14;95129.19;;;24.58;46.55
8292;BME280;4184;42.724;23.308;2022-08-19T00:11:42;95137.34;;;24.56;46.76
8292;BME280;4184;42.724;23.308;2022-08-19T00:14:11;95128.25;;;24.52;46.53
8292;BME280;4184;42.724;23.308;2022-08-19T00:16:40;95137.44;;;24.50;47.26
8292;BME280;4184;42.724;23.308;2022-08-19T00:19:08;95141.09;;;24.49;47.04
8292;BME280;4184;42.724;23.308;2022-08-19T00:21:36;95143.97;;;24.47;47.29
8292;BME280;4184;42.724;23.308;2022-08-19T00:24:06;95139.94;;;24.45;47.07
8292;BME280;4184;42.724;23.308;2022-08-19T00:26:36;95146.28;;;24.44;47.21
8292;BME280;4184;42.724;23.308;2022-08-19T00:29:04;95139.59;;;24.41;47.55
8292;BME280;4184;42.724;23.308;2022-08-19T00:31:32;95142.69;;;24.38;47.60
8292;BME280;4184;42.724;23.308;2022-08-19T00:34:00;95136.47;;;24.33;47.51
8292;BME280;4184;42.724;23.308;2022-08-19T00:36:27;95135.88;;;24.30;47.99
8292;BME280;4184;42.724;23.308;2022-08-19T00:38:55;95136.31;;;24.27;47.67
8292;BME280;4184;42.724;23.308;2022-08-19T00:41:24;95128.84;;;24.24;47.73
8292;BME280;4184;42.724;23.308;2022-08-19T00:44:02;95133.56;;;24.22;47.92
8292;BME280;4184;42.724;23.308;2022-08-19T00:46:30;95135.84;;;24.19;47.96
8292;BME280;4184;42.724;23.308;2022-08-19T00:48:59;95131.56;;;24.18;48.25
8292;BME280;4184;42.724;23.308;2022-08-19T00:51:30;95132.81;;;24.15;48.34
8292;BME280;4184;42.724;23.308;2022-08-19T00:53:59;95127.63;;;24.09;48.00
8292;BME280;4184;42.724;23.308;2022-08-19T00:56:28;95126.09;;;24.01;48.57
8292;BME280;4184;42.724;23.308;2022-08-19T00:58:57;95123.91;;;23.98;48.35
8292;BME280;4184;42.724;23.308;2022-08-19T01:01:27;95127.22;;;23.93;48.62
8292;BME280;4184;42.724;23.308;2022-08-19T01:03:54;95122.03;;;23.87;48.28
8292;BME280;4184;42.724;23.308;2022-08-19T01:06:22;95133.84;;;23.84;48.56
8292;BME280;4184;42.724;23.308;2022-08-19T01:08:49;95133.03;;;23.84;48.28
8292;BME280;4184;42.724;23.308;2022-08-19T01:11:17;95129.34;;;23.85;48.30
8292;BME280;4184;42.724;23.308;2022-08-19T01:13:45;95134.63;;;23.85;48.37
8292;BME280;4184;42.724;23.308;2022-08-19T01:16:13;95126.13;;;23.83;48.42
8292;BME280;4184;42.724;23.308;2022-08-19T01:18:43;95131.41;;;23.83;48.79
8292;BME280;4184;42.724;23.308;2022-08-19T01:21:18;95137.16;;;23.80;48.63
8292;BME280;4184;42.724;23.308;2022-08-19T01:23:50;95126.22;;;23.76;48.63
8292;BME280;4184;42.724;23.308;2022-08-19T01:26:21;95125.06;;;23.72;48.69
8292;BME280;4184;42.724;23.308;2022-08-19T01:28:51;95119.63;;;23.67;48.74
8292;BME280;4184;42.724;23.308;2022-08-19T01:31:23;95128.22;;;23.62;48.99
8292;BME280;4184;42.724;23.308;2022-08-19T01:33:52;95125.81;;;23.61;49.05
8292;BME280;4184;42.724;23.308;2022-08-19T01:36:24;95126.03;;;23.59;49.54
8292;BME280;4184;42.724;23.308;2022-08-19T01:38:55;95119.56;;;23.55;49.29
8292;BME280;4184;42.724;23.308;2022-08-19T01:41:24;95123.63;;;23.51;49.55
8292;BME280;4184;42.724;23.308;2022-08-19T01:43:52;95122.03;;;23.50;49.56
8292;BME280;4184;42.724;23.308;2022-08-19T01:46:20;95122.03;;;23.50;49.47
8292;BME280;4184;42.724;23.308;2022-08-19T01:48:48;95129.16;;;23.50;49.72
8292;BME280;4184;42.724;23.308;2022-08-19T01:51:16;95132.81;;;23.49;49.58
8292;BME280;4184;42.724;23.308;2022-08-19T01:53:48;95132.00;;;23.48;49.54
8292;BME280;4184;42.724;23.308;2022-08-19T01:56:17;95132.22;;;23.47;49.82
8292;BME280;4184;42.724;23.308;2022-08-19T01:58:49;95139.19;;;23.41;49.96
8292;BME280;4184;42.724;23.308;2022-08-19T02:01:20;95139.66;;;23.38;49.79
8292;BME280;4184;42.724;23.308;2022-08-19T02:03:48;95142.72;;;23.35;50.02
8292;BME280;4184;42.724;23.308;2022-08-19T02:06:15;95141.88;;;23.34;50.32
8292;BME280;4184;42.724;23.308;2022-08-19T02:08:43;95144.75;;;23.33;50.55
8292;BME280;4184;42.724;23.308;2022-08-19T02:11:22;95145.19;;;23.30;50.46
8292;BME280;4184;42.724;23.308;2022-08-19T02:13:50;95142.78;;;23.28;50.27
8292;BME280;4184;42.724;23.308;2022-08-19T02:16:18;95145.63;;;23.27;50.62
8292;BME280;4184;42.724;23.308;2022-08-19T02:18:46;95138.75;;;23.26;50.47
8292;BME280;4184;42.724;23.308;2022-08-19T02:21:14;95135.31;;;23.25;50.74
8292;BME280;4184;42.724;23.308;2022-08-19T02:23:43;95137.94;;;23.25;50.54
8292;BME280;4184;42.724;23.308;2022-08-19T02:26:11;95138.16;;;23.24;50.48
8292;BME280;4184;42.724;23.308;2022-08-19T02:28:41;95139.56;;;23.26;50.51
8292;BME280;4184;42.724;23.308;2022-08-19T02:31:10;95147.47;;;23.26;50.35
8292;BME280;4184;42.724;23.308;2022-08-19T02:33:38;95139.78;;;23.25;50.52
8292;BME280;4184;42.724;23.308;2022-08-19T02:36:08;95137.00;;;23.20;50.82
8292;BME280;4184;42.724;23.308;2022-08-19T02:38:35;95139.84;;;23.18;50.83
8292;BME280;4184;42.724;23.308;2022-08-19T02:41:06;95141.28;;;23.14;50.90
8292;BME280;4184;42.724;23.308;2022-08-19T02:43:36;95136.22;;;23.13;50.90
8292;BME280;4184;42.724;23.308;2022-08-19T02:46:14;95138.72;;;23.07;50.79
8292;BME280;4184;42.724;23.308;2022-08-19T02:48:43;95133.44;;;23.07;50.95
8292;BME280;4184;42.724;23.308;2022-08-19T02:51:17;95138.16;;;23.05;50.78
8292;BME280;4184;42.724;23.308;2022-08-19T02:53:45;95139.75;;;23.06;51.01
8292;BME280;4184;42.724;23.308;2022-08-19T02:56:12;95147.06;;;23.04;50.95
8292;BME280;4184;42.724;23.308;2022-08-19T02:58:41;95152.97;;;23.00;50.84
8292;BME280;4184;42.724;23.308;2022-08-19T03:01:10;95152.03;;;22.94;51.11
8292;BME280;4184;42.724;23.308;2022-08-19T03:03:39;95149.81;;;22.91;51.04
8292;BME280;4184;42.724;23.308;2022-08-19T03:06:08;95146.00;;;22.87;51.09
8292;BME280;4184;42.724;23.308;2022-08-19T03:08:40;95141.78;;;22.86;50.82
8292;BME280;4184;42.724;23.308;2022-08-19T03:11:13;95144.63;;;22.85;50.97
8292;BME280;4184;42.724;23.308;2022-08-19T03:13:41;95147.44;;;22.83;51.26
8292;BME280;4184;42.724;23.308;2022-08-19T03:16:10;95140.56;;;22.82;50.86
8292;BME280;4184;42.724;23.308;2022-08-19T03:18:39;95146.25;;;22.79;51.26
8292;BME280;4184;42.724;23.308;2022-08-19T03:21:07;95139.00;;;22.74;51.25
8292;BME280;4184;42.724;23.308;2022-08-19T03:23:34;95142.28;;;22.70;51.31
8292;BME280;4184;42.724;23.308;2022-08-19T03:26:04;95145.31;;;22.67;51.39
8292;BME280;4184;42.724;23.308;2022-08-19T03:28:33;95147.59;;;22.63;51.49
8292;BME280;4184;42.724;23.308;2022-08-19T03:31:04;95142.31;;;22.63;51.73
8292;BME280;4184;42.724;23.308;2022-08-19T03:33:33;95152.03;;;22.63;51.85
8292;BME280;4184;42.724;23.308;2022-08-19T03:36:06;95148.59;;;22.62;51.70
8292;BME280;4184;42.724;23.308;2022-08-19T03:38:35;95150.66;;;22.60;51.58
8292;BME280;4184;42.724;23.308;2022-08-19T03:41:04;95157.75;;;22.60;51.77
8292;BME280;4184;42.724;23.308;2022-08-19T03:43:35;95154.09;;;22.61;51.71
8292;BME280;4184;42.724;23.308;2022-08-19T03:46:05;95155.72;;;22.62;51.93
8292;BME280;4184;42.724;23.308;2022-08-19T03:48:33;95157.31;;;22.63;51.75
8292;BME280;4184;42.724;23.308;2022-08-19T03:51:04;95171.09;;;22.65;51.99
8292;BME280;4184;42.724;23.308;2022-08-19T03:53:32;95167.41;;;22.66;51.78
8292;BME280;4184;42.724;23.308;2022-08-19T03:56:00;95172.28;;;22.69;52.03
8292;BME280;4184;42.724;23.308;2022-08-19T03:58:29;95177.13;;;22.72;51.85
8292;BME280;4184;42.724;23.308;2022-08-19T04:00:57;95172.22;;;22.75;51.52
8292;BME280;4184;42.724;23.308;2022-08-19T04:03:25;95178.47;;;22.88;51.74
8292;BME280;4184;42.724;23.308;2022-08-19T04:05:53;95177.69;;;23.05;51.44
8292;BME280;4184;42.724;23.308;2022-08-19T04:08:22;95180.38;;;23.24;50.68
8292;BME280;4184;42.724;23.308;2022-08-19T04:10:50;95178.91;;;23.46;50.23
8292;BME280;4184;42.724;23.308;2022-08-19T04:13:18;95179.53;;;23.66;49.86
8292;BME280;4184;42.724;23.308;2022-08-19T04:15:46;95186.22;;;23.87;49.48
8292;BME280;4184;42.724;23.308;2022-08-19T04:18:14;95181.72;;;24.06;48.85
8292;BME280;4184;42.724;23.308;2022-08-19T04:20:42;95182.47;;;24.25;48.34
8292;BME280;4184;42.724;23.308;2022-08-19T04:23:11;95184.97;;;24.38;48.46
8292;BME280;4184;42.724;23.308;2022-08-19T04:25:42;95187.88;;;24.48;47.87
8292;BME280;4184;42.724;23.308;2022-08-19T04:28:12;95189.75;;;24.59;47.58
8292;BME280;4184;42.724;23.308;2022-08-19T04:30:42;95186.78;;;24.68;47.87
8292;BME280;4184;42.724;23.308;2022-08-19T04:33:11;95187.38;;;24.81;47.23
8292;BME280;4184;42.724;23.308;2022-08-19T04:35:40;95189.53;;;25.03;47.05
8292;BME280;4184;42.724;23.308;2022-08-19T04:38:09;95189.16;;;25.34;46.10
8292;BME280;4184;42.724;23.308;2022-08-19T04:40:42;95186.16;;;25.66;45.57
8292;BME280;4184;42.724;23.308;2022-08-19T04:43:27;95194.28;;;25.99;44.92
8292;BME280;4184;42.724;23.308;2022-08-19T04:45:55;95190.63;;;26.29;44.29
8292;BME280;4184;42.724;23.308;2022-08-19T04:48:23;95190.91;;;26.56;43.69
8292;BME280;4184;42.724;23.308;2022-08-19T04:50:53;95183.59;;;26.80;43.42
8292;BME280;4184;42.724;23.308;2022-08-19T04:53:23;95187.16;;;27.02;43.23
8292;BME280;4184;42.724;23.308;2022-08-19T04:55:56;95195.22;;;27.24;42.74
8292;BME280;4184;42.724;23.308;2022-08-19T04:58:25;95186.50;;;27.45;42.52
8292;BME280;4184;42.724;23.308;2022-08-19T05:00:54;95194.78;;;27.66;42.03
8292;BME280;4184;42.724;23.308;2022-08-19T05:03:21;95183.91;;;27.67;41.69
8292;BME280;4184;42.724;23.308;2022-08-19T05:05:49;95196.00;;;27.41;42.25
8292;BME280;4184;42.724;23.308;2022-08-19T05:08:19;95195.78;;;27.09;42.58
8292;BME280;4184;42.724;23.308;2022-08-19T05:10:49;95189.38;;;26.77;43.47
8292;BME280;4184;42.724;23.308;2022-08-19T05:13:20;95199.47;;;26.46;43.50
8292;BME280;4184;42.724;23.308;2022-08-19T05:15:57;95203.22;;;26.22;44.30
8292;BME280;4184;42.724;23.308;2022-08-19T05:18:25;95201.56;;;26.04;44.35
8292;BME280;4184;42.724;23.308;2022-08-19T05:21:12;95203.53;;;25.85;44.70
8292;BME280;4184;42.724;23.308;2022-08-19T05:23:58;95204.25;;;25.69;45.09
8292;BME280;4184;42.724;23.308;2022-08-19T05:26:25;95204.00;;;25.59;45.60
8292;BME280;4184;42.724;23.308;2022-08-19T05:28:55;95207.13;;;25.44;45.95
8292;BME280;4184;42.724;23.308;2022-08-19T05:31:22;95211.38;;;25.33;46.18
8292;BME280;4184;42.724;23.308;2022-08-19T05:33:50;95204.94;;;25.29;46.22
8292;BME280;4184;42.724;23.308;2022-08-19T05:36:17;95205.88;;;25.23;46.78
8292;BME280;4184;42.724;23.308;2022-08-19T05:38:46;95198.75;;;25.24;46.75
8292;BME280;4184;42.724;23.308;2022-08-19T05:41:16;95205.75;;;25.53;46.42
8292;BME280;4184;42.724;23.308;2022-08-19T05:43:43;95205.44;;;26.13;45.00
8292;BME280;4184;42.724;23.308;2022-08-19T05:46:17;95196.94;;;26.85;43.93
8292;BME280;4184;42.724;23.308;2022-08-19T05:48:45;95195.50;;;27.44;42.68
8292;BME280;4184;42.724;23.308;2022-08-19T05:51:16;95199.16;;;28.21;41.73
8292;BME280;4184;42.724;23.308;2022-08-19T05:53:44;95189.00;;;28.88;40.69
8292;BME280;4184;42.724;23.308;2022-08-19T05:56:15;95195.59;;;29.50;39.66
8292;BME280;4184;42.724;23.308;2022-08-19T05:58:44;95194.03;;;30.06;38.36
8292;BME280;4184;42.724;23.308;2022-08-19T06:01:16;95191.00;;;30.55;37.42
8292;BME280;4184;42.724;23.308;2022-08-19T06:03:45;95195.88;;;30.99;37.19
8292;BME280;4184;42.724;23.308;2022-08-19T06:06:17;95196.97;;;31.33;36.53
8292;BME280;4184;42.724;23.308;2022-08-19T06:08:45;95195.31;;;31.63;35.95
8292;BME280;4184;42.724;23.308;2022-08-19T06:11:18;95191.53;;;31.94;35.37
8292;BME280;4184;42.724;23.308;2022-08-19T06:13:47;95194.16;;;32.05;35.09
8292;BME280;4184;42.724;23.308;2022-08-19T06:16:18;95194.22;;;31.69;35.36
8292;BME280;4184;42.724;23.308;2022-08-19T06:18:49;95200.44;;;31.19;36.09
8292;BME280;4184;42.724;23.308;2022-08-19T06:21:18;95190.50;;;30.58;36.82
8292;BME280;4184;42.724;23.308;2022-08-19T06:23:46;95202.00;;;30.01;37.65
8292;BME280;4184;42.724;23.308;2022-08-19T06:26:15;95199.09;;;29.55;38.90
8292;BME280;4184;42.724;23.308;2022-08-19T06:28:43;95208.41;;;29.21;39.47
8292;BME280;4184;42.724;23.308;2022-08-19T06:31:13;95198.09;;;28.92;39.51
8292;BME280;4184;42.724;23.308;2022-08-19T06:33:44;95202.09;;;28.68;39.60
8292;BME280;4184;42.724;23.308;2022-08-19T06:36:18;95199.72;;;28.44;39.98
8292;BME280;4184;42.724;23.308;2022-08-19T06:38:45;95201.34;;;28.24;40.28
8292;BME280;4184;42.724;23.308;2022-08-19T06:41:13;95204.06;;;28.07;41.06
8292;BME280;4184;42.724;23.308;2022-08-19T06:43:40;95203.34;;;27.90;41.30
8292;BME280;4184;42.724;23.308;2022-08-19T06:46:13;95202.09;;;27.75;41.53
8292;BME280;4184;42.724;23.308;2022-08-19T06:48:42;95200.31;;;27.64;41.46
8292;BME280;4184;42.724;23.308;2022-08-19T06:51:10;95203.84;;;27.53;41.47
8292;BME280;4184;42.724;23.308;2022-08-19T06:53:38;95201.88;;;27.43;41.77
8292;BME280;4184;42.724;23.308;2022-08-19T06:56:06;95202.03;;;27.37;41.81
8292;BME280;4184;42.724;23.308;2022-08-19T06:58:33;95196.16;;;27.35;42.29
8292;BME280;4184;42.724;23.308;2022-08-19T07:01:02;95201.72;;;27.33;42.01
8292;BME280;4184;42.724;23.308;2022-08-19T07:03:32;95207.25;;;27.32;42.04
8292;BME280;4184;42.724;23.308;2022-08-19T07:06:05;95205.66;;;27.31;42.17
8292;BME280;4184;42.724;23.308;2022-08-19T07:08:34;95208.88;;;27.33;42.36
8292;BME280;4184;42.724;23.308;2022-08-19T07:11:02;95208.88;;;27.33;42.45
8292;BME280;4184;42.724;23.308;2022-08-19T07:13:33;95212.88;;;27.35;42.48
8292;BME280;4184;42.724;23.308;2022-08-19T07:16:04;95208.94;;;27.38;42.40
8292;BME280;4184;42.724;23.308;2022-08-19T07:18:32;95213.69;;;27.36;42.28
8292;BME280;4184;42.724;23.308;2022-08-19T07:21:06;95202.81;;;27.37;42.40
8292;BME280;4184;42.724;23.308;2022-08-19T07:23:34;95208.47;;;27.41;42.74
8292;BME280;4184;42.724;23.308;2022-08-19T07:26:07;95204.84;;;27.64;41.89
8292;BME280;4184;42.724;23.308;2022-08-19T07:28:35;95202.47;;;28.55;40.73
8292;BME280;4184;42.724;23.308;2022-08-19T07:31:05;95201.81;;;29.60;39.22
8292;BME280;4184;42.724;23.308;2022-08-19T07:33:34;95195.06;;;30.68;37.24
8292;BME280;4184;42.724;23.308;2022-08-19T07:36:05;95188.94;;;31.59;35.76
8292;BME280;4184;42.724;23.308;2022-08-19T07:38:34;95189.22;;;32.37;34.54
8292;BME280;4184;42.724;23.308;2022-08-19T07:41:02;95187.94;;;33.13;33.53
8292;BME280;4184;42.724;23.308;2022-08-19T07:43:29;95191.91;;;33.78;32.70
8292;BME280;4184;42.724;23.308;2022-08-19T07:45:57;95186.41;;;34.36;32.62
8292;BME280;4184;42.724;23.308;2022-08-19T07:48:26;95182.94;;;34.92;31.94
8292;BME280;4184;42.724;23.308;2022-08-19T07:50:54;95182.34;;;35.47;30.84
8292;BME280;4184;42.724;23.308;2022-08-19T07:53:24;95187.59;;;35.98;30.50
8292;BME280;4184;42.724;23.308;2022-08-19T07:55:52;95186.38;;;36.45;29.97
8292;BME280;4184;42.724;23.308;2022-08-19T07:58:21;95182.97;;;36.90;29.54
8292;BME280;4184;42.724;23.308;2022-08-19T08:00:50;95185.59;;;37.26;29.40
8292;BME280;4184;42.724;23.308;2022-08-19T08:03:20;95186.13;;;37.59;28.65
8292;BME280;4184;42.724;23.308;2022-08-19T08:06:08;95187.22;;;37.80;28.52
8292;BME280;4184;42.724;23.308;2022-08-19T08:08:54;95189.47;;;37.96;28.20
8292;BME280;4184;42.724;23.308;2022-08-19T08:11:50;95182.53;;;38.12;27.87
8292;BME280;4184;42.724;23.308;2022-08-19T08:14:21;95192.81;;;38.32;27.77
8292;BME280;4184;42.724;23.308;2022-08-19T08:16:50;95181.06;;;38.63;27.81
8292;BME280;4184;42.724;23.308;2022-08-19T08:19:19;95168.41;;;38.89;26.84
8292;BME280;4184;42.724;23.308;2022-08-19T08:21:48;95171.09;;;39.06;27.20
8292;BME280;4184;42.724;23.308;2022-08-19T08:24:17;95165.19;;;39.22;27.34
8292;BME280;4184;42.724;23.308;2022-08-19T08:26:46;95163.56;;;39.38;26.70
8292;BME280;4184;42.724;23.308;2022-08-19T08:29:14;95169.44;;;39.57;26.58
8292;BME280;4184;42.724;23.308;2022-08-19T08:31:43;95163.75;;;39.80;26.64
8292;BME280;4184;42.724;23.308;2022-08-19T08:34:12;95160.38;;;40.00;25.99
8292;BME280;4184;42.724;23.308;2022-08-19T08:36:42;95160.09;;;40.22;26.09
8292;BME280;4184;42.724;23.308;2022-08-19T08:39:11;95155.66;;;40.39;25.98
8292;BME280;4184;42.724;23.308;2022-08-19T08:41:46;95160.47;;;40.42;25.73
8292;BME280;4184;42.724;23.308;2022-08-19T08:44:21;95156.41;;;40.48;25.68
8292;BME280;4184;42.724;23.308;2022-08-19T08:46:51;95150.41;;;40.63;25.55
8292;BME280;4184;42.724;23.308;2022-08-19T08:49:28;95152.84;;;40.77;25.34
8292;BME280;4184;42.724;23.308;2022-08-19T08:52:04;95145.34;;;40.82;25.25
8292;BME280;4184;42.724;23.308;2022-08-19T08:54:36;95148.66;;;40.88;25.03
8292;BME280;4184;42.724;23.308;2022-08-19T08:57:11;95141.22;;;40.97;24.89
8292;BME280;4184;42.724;23.308;2022-08-19T08:59:41;95137.09;;;41.12;24.72
8292;BME280;4184;42.724;23.308;2022-08-19T09:02:10;95141.44;;;41.25;24.62
8292;BME280;4184;42.724;23.308;2022-08-19T09:04:38;95135.16;;;41.33;24.36
8292;BME280;4184;42.724;23.308;2022-08-19T09:07:23;95134.59;;;41.40;24.47
8292;BME280;4184;42.724;23.308;2022-08-19T09:09:56;95126.06;;;41.29;24.02
8292;BME280;4184;42.724;23.308;2022-08-19T09:12:35;95128.34;;;41.27;24.07
8292;BME280;4184;42.724;23.308;2022-08-19T09:15:07;95127.66;;;41.30;24.00
8292;BME280;4184;42.724;23.308;2022-08-19T09:17:36;95126.34;;;41.36;23.84
8292;BME280;4184;42.724;23.308;2022-08-19T09:20:13;95120.91;;;41.36;24.20
8292;BME280;4184;42.724;23.308;2022-08-19T09:22:42;95125.78;;;41.43;24.07
8292;BME280;4184;42.724;23.308;2022-08-19T09:25:12;95121.25;;;41.47;23.52
8292;BME280;4184;42.724;23.308;2022-08-19T09:27:42;95114.03;;;41.51;23.76
8292;BME280;4184;42.724;23.308;2022-08-19T09:30:14;95113.47;;;41.58;23.63
8292;BME280;4184;42.724;23.308;2022-08-19T09:32:42;95110.97;;;41.65;23.06
8292;BME280;4184;42.724;23.308;2022-08-19T09:35:11;95108.81;;;41.58;23.07
8292;BME280;4184;42.724;23.308;2022-08-19T09:37:40;95114.13;;;41.42;23.00
8292;BME280;4184;42.724;23.308;2022-08-19T09:40:09;95102.34;;;41.38;23.15
8292;BME280;4184;42.724;23.308;2022-08-19T09:42:37;95095.34;;;41.37;23.13
8292;BME280;4184;42.724;23.308;2022-08-19T09:45:07;95102.25;;;41.35;23.23
8292;BME280;4184;42.724;23.308;2022-08-19T09:47:35;95097.94;;;41.34;23.42
8292;BME280;4184;42.724;23.308;2022-08-19T09:50:05;95099.88;;;41.33;23.08
8292;BME280;4184;42.724;23.308;2022-08-19T09:52:33;95095.78;;;41.27;22.80
8292;BME280;4184;42.724;23.308;2022-08-19T09:55:03;95094.47;;;41.12;23.19
8292;BME280;4184;42.724;23.308;2022-08-19T09:57:30;95092.50;;;40.88;23.16
8292;BME280;4184;42.724;23.308;2022-08-19T09:59:58;95087.88;;;40.68;23.13
8292;BME280;4184;42.724;23.308;2022-08-19T10:02:27;95091.38;;;40.48;23.26
8292;BME280;4184;42.724;23.308;2022-08-19T10:04:55;95078.00;;;40.22;23.50
8292;BME280;4184;42.724;23.308;2022-08-19T10:07:39;95073.72;;;40.00;23.63
8292;BME280;4184;42.724;23.308;2022-08-19T10:10:08;95078.16;;;39.66;23.38
8292;BME280;4184;42.724;23.308;2022-08-19T10:12:37;95068.88;;;39.29;24.23
8292;BME280;4184;42.724;23.308;2022-08-19T10:15:06;95068.81;;;39.08;24.36
8292;BME280;4184;42.724;23.308;2022-08-19T10:17:35;95066.97;;;38.66;24.12
8292;BME280;4184;42.724;23.308;2022-08-19T10:20:04;95073.28;;;38.18;25.04
8292;BME280;4184;42.724;23.308;2022-08-19T10:22:32;95069.34;;;37.67;25.49
8292;BME280;4184;42.724;23.308;2022-08-19T10:25:01;95069.94;;;37.24;25.93
8292;BME280;4184;42.724;23.308;2022-08-19T10:27:29;95066.53;;;36.79;26.22
8292;BME280;4184;42.724;23.308;2022-08-19T10:29:57;95066.06;;;36.41;26.68
8292;BME280;4184;42.724;23.308;2022-08-19T10:32:24;95060.97;;;36.03;26.70
8292;BME280;4184;42.724;23.308;2022-08-19T10:34:53;95064.78;;;35.75;27.04
8292;BME280;4184;42.724;23.308;2022-08-19T10:37:22;95057.13;;;35.54;27.29
8292;BME280;4184;42.724;23.308;2022-08-19T10:39:50;95059.69;;;35.32;27.06
8292;BME280;4184;42.724;23.308;2022-08-19T10:42:18;95059.66;;;35.05;27.26
8292;BME280;4184;42.724;23.308;2022-08-19T10:44:45;95049.84;;;34.81;27.90
8292;BME280;4184;42.724;23.308;2022-08-19T10:47:14;95046.91;;;34.64;27.39
8292;BME280;4184;42.724;23.308;2022-08-19T10:49:42;95054.03;;;34.55;27.73
8292;BME280;4184;42.724;23.308;2022-08-19T10:52:28;95050.16;;;34.47;28.52
8292;BME280;4184;42.724;23.308;2022-08-19T10:55:04;95042.25;;;34.37;28.56
8292;BME280;4184;42.724;23.308;2022-08-19T10:57:50;95047.16;;;34.30;28.64
8292;BME280;4184;42.724;23.308;2022-08-19T11:00:19;95039.16;;;34.25;29.07
8292;BME280;4184;42.724;23.308;2022-08-19T11:02:46;95043.81;;;34.19;28.86
8292;BME280;4184;42.724;23.308;2022-08-19T11:05:14;95036.16;;;34.13;29.20
8292;BME280;4184;42.724;23.308;2022-08-19T11:07:44;95041.28;;;34.09;29.19
8292;BME280;4184;42.724;23.308;2022-08-19T11:10:13;95038.09;;;34.07;29.32
8292;BME280;4184;42.724;23.308;2022-08-19T11:12:45;95040.06;;;34.01;29.41
8292;BME280;4184;42.724;23.308;2022-08-19T11:15:14;95036.06;;;33.99;29.50
8292;BME280;4184;42.724;23.308;2022-08-19T11:17:41;95032.88;;;33.97;29.22
8292;BME280;4184;42.724;23.308;2022-08-19T11:20:10;95029.47;;;33.91;29.47
8292;BME280;4184;42.724;23.308;2022-08-19T11:22:38;95026.63;;;33.83;29.57
8292;BME280;4184;42.724;23.308;2022-08-19T11:25:09;95024.81;;;33.78;30.11
8292;BME280;4184;42.724;23.308;2022-08-19T11:27:39;95020.78;;;33.75;29.70
8292;BME280;4184;42.724;23.308;2022-08-19T11:30:09;95022.97;;;33.73;30.33
8292;BME280;4184;42.724;23.308;2022-08-19T11:32:37;95024.84;;;33.73;30.38
8292;BME280;4184;42.724;23.308;2022-08-19T11:35:06;95022.97;;;33.73;30.11
8292;BME280;4184;42.724;23.308;2022-08-19T11:37:33;95021.97;;;33.69;30.52
8292;BME280;4184;42.724;23.308;2022-08-19T11:40:05;95012.41;;;33.63;30.69
8292;BME280;4184;42.724;23.308;2022-08-19T11:42:34;95009.75;;;33.58;30.67
8292;BME280;4184;42.724;23.308;2022-08-19T11:45:19;95010.91;;;33.52;30.67
8292;BME280;4184;42.724;23.308;2022-08-19T11:47:47;95014.69;;;33.51;30.69
8292;BME280;4184;42.724;23.308;2022-08-19T11:50:15;94999.97;;;33.48;30.73
8292;BME280;4184;42.724;23.308;2022-08-19T11:52:43;94997.09;;;33.45;31.15
8292;BME280;4184;42.724;23.308;2022-08-19T11:55:12;94994.94;;;33.42;30.40
8292;BME280;4184;42.724;23.308;2022-08-19T11:57:41;95001.66;;;33.44;30.87
8292;BME280;4184;42.724;23.308;2022-08-19T12:00:10;94994.91;;;33.47;30.65
8292;BME280;4184;42.724;23.308;2022-08-19T12:02:39;94997.59;;;33.47;30.94
8292;BME280;4184;42.724;23.308;2022-08-19T12:05:08;94989.56;;;33.47;30.42
8292;BME280;4184;42.724;23.308;2022-08-19T12:07:35;94978.03;;;33.46;30.48
8292;BME280;4184;42.724;23.308;2022-08-19T12:10:04;94980.41;;;33.48;30.36
8292;BME280;4184;42.724;23.308;2022-08-19T12:12:31;94978.81;;;33.47;30.69
8292;BME280;4184;42.724;23.308;2022-08-19T12:15:00;94979.41;;;33.44;31.10
8292;BME280;4184;42.724;23.308;2022-08-19T12:17:28;94974.03;;;33.44;31.21
8292;BME280;4184;42.724;23.308;2022-08-19T12:19:56;94972.97;;;33.45;31.08
8292;BME280;4184;42.724;23.308;2022-08-19T12:22:24;94967.59;;;33.45;30.59
8292;BME280;4184;42.724;23.308;2022-08-19T12:24:52;94960.09;;;33.42;30.96
8292;BME280;4184;42.724;23.308;2022-08-19T12:27:21;94953.16;;;33.41;31.41
8292;BME280;4184;42.724;23.308;2022-08-19T12:29:48;94944.91;;;33.37;31.21
8292;BME280;4184;42.724;23.308;2022-08-19T12:32:17;94946.28;;;33.35;30.82
8292;BME280;4184;42.724;23.308;2022-08-19T12:34:45;94954.59;;;33.33;30.86
8292;BME280;4184;42.724;23.308;2022-08-19T12:37:13;94946.03;;;33.31;31.40
8292;BME280;4184;42.724;23.308;2022-08-19T12:39:43;94948.44;;;33.33;30.72
8292;BME280;4184;42.724;23.308;2022-08-19T12:42:11;94947.38;;;33.34;31.32
8292;BME280;4184;42.724;23.308;2022-08-19T12:44:40;94944.69;;;33.34;31.04
8292;BME280;4184;42.724;23.308;2022-08-19T12:47:10;94939.31;;;33.34;31.65
8292;BME280;4184;42.724;23.308;2022-08-19T12:49:40;94944.69;;;33.34;31.00
8292;BME280;4184;42.724;23.308;2022-08-19T12:52:08;94936.63;;;33.34;31.17
8292;BME280;4184;42.724;23.308;2022-08-19T12:54:37;94932.88;;;33.35;31.48
8292;BME280;4184;42.724;23.308;2022-08-19T12:57:06;94935.56;;;33.35;31.56
8292;BME280;4184;42.724;23.308;2022-08-19T12:59:34;94934.19;;;33.37;30.94
8292;BME280;4184;42.724;23.308;2022-08-19T13:02:03;94927.44;;;33.40;30.87
8292;BME280;4184;42.724;23.308;2022-08-19T13:04:31;94928.03;;;33.37;31.48
8292;BME280;4184;42.724;23.308;2022-08-19T13:07:03;94919.47;;;33.35;30.82
8292;BME280;4184;42.724;23.308;2022-08-19T13:09:30;94924.84;;;33.35;30.88
8292;BME280;4184;42.724;23.308;2022-08-19T13:11:58;94918.69;;;33.34;31.03
8292;BME280;4184;42.724;23.308;2022-08-19T13:14:28;94914.13;;;33.35;31.47
8292;BME280;4184;42.724;23.308;2022-08-19T13:16:57;94916.78;;;33.35;31.59
8292;BME280;4184;42.724;23.308;2022-08-19T13:19:25;94914.91;;;33.35;31.04
8292;BME280;4184;42.724;23.308;2022-08-19T13:21:52;94905.56;;;33.33;31.03
8292;BME280;4184;42.724;23.308;2022-08-19T13:24:22;94913.06;;;33.31;31.16